Time;durP1;ratioP1;P1;durP2;ratioP2;P2;SDS_P1;SDS_P2;PMS_P1;PMS_P2;Temp;Humidity;BMP_temperature;BMP_pressure;BME280_temperature;BME280_humidity;BME280_pressure;Samples;Min_cycle;Max_cycle;Signal;HPM_P1;HPM_P2
2021/05/22 00:00:49;;;;;;;1.00;0.80;;;24.40;58.10;;;;;;5075609;28;20469;-87
2021/05/22 00:03:15;;;;;;;1.00;0.80;;;24.30;58.10;;;;;;5074878;28;20448;-87
2021/05/22 00:05:42;;;;;;;1.30;0.90;;;24.40;58.10;;;;;;5075024;28;20453;-87
2021/05/22 00:08:08;;;;;;;1.30;1.10;;;24.50;58.10;;;;;;5075004;28;20468;-88
2021/05/22 00:10:35;;;;;;;1.00;0.70;;;24.40;58.10;;;;;;5074540;28;20954;-88
2021/05/22 00:13:02;;;;;;;1.40;0.93;;;24.50;58.10;;;;;;5074989;28;20443;-88
2021/05/22 00:15:29;;;;;;;1.50;0.90;;;24.40;58.10;;;;;;5074697;28;20487;-87
2021/05/22 00:17:55;;;;;;;1.10;0.80;;;24.30;58.00;;;;;;5074508;28;20445;-87
2021/05/22 00:20:22;;;;;;;0.90;0.70;;;24.30;57.90;;;;;;5074459;28;20450;-87
2021/05/22 00:22:48;;;;;;;1.00;0.70;;;24.30;57.90;;;;;;5074340;28;20444;-87
2021/05/22 00:25:15;;;;;;;1.53;0.80;;;24.30;57.90;;;;;;5074655;28;20446;-87
2021/05/22 00:27:42;;;;;;;1.40;1.00;;;24.30;58.00;;;;;;5074495;28;20446;-87
2021/05/22 00:30:10;;;;;;;1.00;0.80;;;24.30;58.00;;;;;;5074388;28;20481;-87
2021/05/22 00:32:37;;;;;;;1.80;1.10;;;24.30;57.90;;;;;;5074324;28;20438;-87
2021/05/22 00:35:04;;;;;;;1.10;0.80;;;24.30;57.90;;;;;;5074248;28;20475;-86
2021/05/22 00:37:31;;;;;;;1.10;0.77;;;24.30;57.90;;;;;;5074395;28;20446;-86
2021/05/22 00:39:57;;;;;;;1.00;0.70;;;24.30;57.90;;;;;;5073697;28;20460;-86
2021/05/22 00:42:23;;;;;;;1.83;0.90;;;24.30;57.90;;;;;;5074044;28;20789;-86
2021/05/22 00:45:09;;;;;;;1.10;0.80;;;24.30;57.90;;;;;;5074102;28;20460;-87
2021/05/22 00:47:36;;;;;;;1.20;0.80;;;24.30;57.90;;;;;;5073928;28;20443;-87
2021/05/22 00:50:04;;;;;;;1.00;0.80;;;24.40;58.00;;;;;;5073783;28;20852;-87
2021/05/22 00:52:31;;;;;;;1.00;0.83;;;24.30;57.90;;;;;;5073225;28;20452;-87
2021/05/22 00:54:57;;;;;;;1.00;0.73;;;24.30;57.90;;;;;;5073668;28;20960;-87
2021/05/22 00:57:26;;;;;;;1.00;0.70;;;24.30;57.90;;;;;;5073702;28;20498;-87
2021/05/22 00:59:53;;;;;;;1.00;0.70;;;24.30;57.90;;;;;;5073810;28;20841;-87
2021/05/22 01:02:24;;;;;;;1.30;0.80;;;24.30;57.90;;;;;;5073890;28;20445;-87
2021/05/22 01:04:51;;;;;;;1.00;0.73;;;24.20;57.80;;;;;;5074130;28;20438;-87
2021/05/22 01:07:17;;;;;;;1.17;0.80;;;24.20;57.80;;;;;;5073925;28;20446;-86
2021/05/22 01:09:46;;;;;;;1.10;0.80;;;24.30;57.90;;;;;;5074054;28;20437;-87
2021/05/22 01:12:14;;;;;;;1.10;0.70;;;24.30;57.90;;;;;;5073888;28;20447;-86
2021/05/22 01:14:43;;;;;;;1.27;0.80;;;24.20;57.80;;;;;;5074185;28;20503;-87
2021/05/22 01:17:12;;;;;;;1.47;0.73;;;24.30;57.90;;;;;;5074464;28;20535;-87
2021/05/22 01:19:43;;;;;;;1.33;0.90;;;24.30;57.90;;;;;;5073405;28;20449;-87
2021/05/22 01:22:11;;;;;;;1.10;0.90;;;24.20;57.80;;;;;;5073406;28;20921;-87
2021/05/22 01:24:44;;;;;;;1.20;0.80;;;24.20;57.80;;;;;;5073364;28;20452;-87
2021/05/22 01:27:12;;;;;;;1.97;0.80;;;24.20;57.80;;;;;;5073645;28;20450;-87
2021/05/22 01:29:39;;;;;;;1.70;0.93;;;24.20;57.70;;;;;;5073561;28;20466;-86
2021/05/22 01:32:07;;;;;;;1.00;0.60;;;24.20;57.70;;;;;;5073348;28;20434;-87
2021/05/22 01:34:34;;;;;;;1.10;0.80;;;24.20;57.80;;;;;;5073571;28;20533;-88
2021/05/22 01:37:00;;;;;;;1.00;0.77;;;24.20;57.70;;;;;;5073053;28;20490;-87
2021/05/22 01:39:26;;;;;;;1.10;0.93;;;24.20;57.80;;;;;;5073259;28;20475;-90
2021/05/22 01:41:53;;;;;;;1.03;0.83;;;24.20;57.70;;;;;;5073392;28;20437;-90
2021/05/22 01:44:22;;;;;;;1.00;0.80;;;24.20;57.70;;;;;;5073399;28;20447;-87
2021/05/22 01:46:49;;;;;;;1.50;0.70;;;24.20;57.70;;;;;;5073307;28;20496;-87
2021/05/22 01:49:18;;;;;;;1.30;0.90;;;24.20;57.70;;;;;;5074260;28;20439;-87
2021/05/22 01:51:46;;;;;;;1.30;0.80;;;24.20;57.70;;;;;;5073189;28;20445;-87
2021/05/22 01:54:13;;;;;;;1.37;0.90;;;24.20;57.70;;;;;;5073406;28;20801;-86
2021/05/22 01:56:40;;;;;;;1.10;0.90;;;24.20;57.60;;;;;;5073065;28;20503;-86
2021/05/22 01:59:07;;;;;;;1.00;0.70;;;24.20;57.60;;;;;;5073863;28;20652;-86
2021/05/22 02:01:34;;;;;;;1.20;0.83;;;24.20;57.60;;;;;;5073118;28;20445;-85
2021/05/22 02:04:04;;;;;;;1.00;0.70;;;24.20;57.70;;;;;;5077545;28;20446;-86
2021/05/22 02:06:39;;;;;;;1.20;0.80;;;24.20;57.60;;;;;;5079205;28;20490;-86
2021/05/22 02:09:06;;;;;;;1.20;0.90;;;24.20;57.60;;;;;;5078471;28;20437;-86
2021/05/22 02:11:37;;;;;;;1.17;0.77;;;24.20;57.60;;;;;;5076817;28;20480;-86
2021/05/22 02:14:06;;;;;;;1.20;0.80;;;24.20;57.60;;;;;;5077064;28;20452;-86
2021/05/22 02:16:36;;;;;;;1.30;0.80;;;24.20;57.70;;;;;;5077168;28;20481;-86
2021/05/22 02:19:04;;;;;;;1.00;0.70;;;24.20;57.60;;;;;;5077376;28;20433;-86
2021/05/22 02:21:32;;;;;;;1.10;0.70;;;24.20;57.60;;;;;;5077075;28;20451;-86
2021/05/22 02:23:58;;;;;;;1.10;0.70;;;24.20;57.70;;;;;;5077107;28;20479;-86
2021/05/22 02:26:26;;;;;;;1.97;0.80;;;24.20;57.60;;;;;;5076843;28;20443;-86
2021/05/22 02:28:54;;;;;;;0.90;0.70;;;24.10;57.60;;;;;;5076624;28;20458;-86
2021/05/22 02:31:25;;;;;;;1.30;0.70;;;24.10;57.50;;;;;;5076449;28;20446;-87
2021/05/22 02:33:55;;;;;;;1.43;1.20;;;24.10;57.60;;;;;;5076473;28;20433;-86
2021/05/22 02:36:21;;;;;;;1.00;0.73;;;24.10;57.60;;;;;;5076436;28;20511;-86
2021/05/22 02:38:51;;;;;;;1.00;0.70;;;24.10;57.60;;;;;;5076244;28;20520;-86
2021/05/22 02:41:19;;;;;;;0.90;0.60;;;24.10;57.50;;;;;;5076592;28;20440;-86
2021/05/22 02:43:49;;;;;;;1.17;0.77;;;24.20;57.60;;;;;;5076574;28;20519;-87
2021/05/22 02:46:19;;;;;;;1.03;0.70;;;24.20;57.60;;;;;;5076396;28;20470;-86
2021/05/22 02:48:46;;;;;;;1.00;0.70;;;24.20;57.60;;;;;;5076348;28;20442;-86
2021/05/22 02:51:17;;;;;;;1.20;0.70;;;24.10;57.50;;;;;;5076560;28;20442;-86
2021/05/22 02:53:45;;;;;;;1.13;0.80;;;24.10;57.50;;;;;;5076756;28;20446;-86
2021/05/22 02:56:12;;;;;;;1.00;0.80;;;24.20;57.50;;;;;;5076010;28;20561;-86
2021/05/22 02:58:41;;;;;;;2.00;0.83;;;24.10;57.50;;;;;;5076110;28;20465;-86
2021/05/22 03:01:07;;;;;;;0.97;0.70;;;24.10;57.40;;;;;;5076305;28;20442;-86
2021/05/22 03:03:35;;;;;;;1.20;0.80;;;24.10;57.40;;;;;;5076104;28;20529;-87
2021/05/22 03:06:03;;;;;;;0.90;0.60;;;24.10;57.50;;;;;;5076187;28;20465;-86
2021/05/22 03:08:30;;;;;;;1.03;0.67;;;24.10;57.50;;;;;;5076098;28;20445;-87
2021/05/22 03:10:57;;;;;;;1.10;0.80;;;24.10;57.50;;;;;;5076086;28;20468;-87
2021/05/22 03:13:23;;;;;;;1.20;0.80;;;24.10;57.40;;;;;;5075840;28;20437;-86
2021/05/22 03:15:50;;;;;;;1.00;0.77;;;24.10;57.40;;;;;;5074778;28;20489;-86
2021/05/22 03:18:16;;;;;;;1.20;0.80;;;24.10;57.50;;;;;;5075806;28;20441;-86
2021/05/22 03:20:42;;;;;;;1.20;0.80;;;24.10;57.40;;;;;;5075663;28;20453;-86
2021/05/22 03:23:09;;;;;;;0.97;0.70;;;24.10;57.40;;;;;;5075518;28;20444;-86
2021/05/22 03:25:36;;;;;;;1.40;0.80;;;24.10;57.40;;;;;;5075705;28;20800;-86
2021/05/22 03:28:02;;;;;;;1.30;0.90;;;24.10;57.40;;;;;;5075658;28;20437;-86
2021/05/22 03:30:28;;;;;;;0.90;0.70;;;24.10;57.40;;;;;;5075753;28;20948;-87
2021/05/22 03:32:55;;;;;;;0.90;0.60;;;24.10;57.40;;;;;;5075385;28;20441;-87
2021/05/22 03:35:21;;;;;;;1.10;0.80;;;24.10;57.40;;;;;;5075585;28;20453;-87
2021/05/22 03:37:47;;;;;;;1.70;1.03;;;24.10;57.40;;;;;;5075261;28;20532;-86
2021/05/22 03:40:14;;;;;;;1.00;0.70;;;24.10;57.40;;;;;;5075182;28;20539;-87
2021/05/22 03:42:41;;;;;;;1.10;0.70;;;24.10;57.40;;;;;;5075283;28;20444;-87
2021/05/22 03:45:09;;;;;;;1.10;1.00;;;24.00;57.30;;;;;;5075423;28;20445;-87
2021/05/22 03:47:35;;;;;;;1.73;0.90;;;24.10;57.40;;;;;;5075407;28;20446;-89
2021/05/22 03:50:01;;;;;;;1.00;0.70;;;24.10;57.90;;;;;;5074974;28;20952;-88
2021/05/22 03:52:28;;;;;;;1.20;0.80;;;24.20;57.50;;;;;;5075103;28;20928;-88
2021/05/22 03:54:54;;;;;;;1.20;0.80;;;24.10;57.30;;;;;;5075184;28;20438;-87
2021/05/22 03:57:20;;;;;;;1.20;0.70;;;24.20;57.50;;;;;;5074792;28;20490;-89
2021/05/22 03:59:47;;;;;;;0.90;0.60;;;24.00;57.30;;;;;;5074997;28;20457;-90
2021/05/22 04:02:14;;;;;;;1.10;1.00;;;24.10;57.40;;;;;;5075027;28;20448;-88
2021/05/22 04:04:40;;;;;;;1.13;0.80;;;24.00;57.30;;;;;;5075108;28;20442;-87
2021/05/22 04:07:06;;;;;;;1.00;0.83;;;24.00;57.30;;;;;;5074942;28;20438;-87
2021/05/22 04:09:33;;;;;;;1.10;0.90;;;24.10;57.40;;;;;;5074966;28;20444;-87
2021/05/22 04:12:01;;;;;;;1.10;0.80;;;24.00;57.30;;;;;;5074690;28;20963;-87
2021/05/22 04:14:27;;;;;;;1.00;0.60;;;24.00;57.30;;;;;;5074908;28;20525;-87
2021/05/22 04:16:55;;;;;;;1.23;0.90;;;24.00;57.40;;;;;;5074601;28;20499;-86
2021/05/22 04:19:21;;;;;;;1.00;0.70;;;24.00;57.30;;;;;;5074937;28;20446;-87
2021/05/22 04:21:47;;;;;;;1.10;0.70;;;24.00;57.90;;;;;;5074782;28;20448;-87
2021/05/22 04:24:13;;;;;;;1.13;0.80;;;24.00;57.40;;;;;;5074390;28;20445;-86
2021/05/22 04:26:40;;;;;;;1.33;0.90;;;24.00;57.40;;;;;;5074313;28;20439;-86
2021/05/22 04:29:06;;;;;;;1.10;0.60;;;24.00;57.30;;;;;;5074506;28;20504;-86
2021/05/22 04:31:32;;;;;;;1.10;0.70;;;24.00;57.40;;;;;;5074096;28;20945;-86
2021/05/22 04:33:59;;;;;;;1.17;0.90;;;24.10;57.40;;;;;;5074410;28;20512;-86
2021/05/22 04:36:26;;;;;;;0.90;0.60;;;24.00;57.40;;;;;;5074121;28;20486;-86
2021/05/22 04:38:52;;;;;;;1.13;0.90;;;24.00;57.40;;;;;;5074054;28;20481;-86
2021/05/22 04:41:18;;;;;;;1.17;0.80;;;24.00;57.40;;;;;;5074332;28;20441;-86
2021/05/22 04:43:45;;;;;;;1.00;0.70;;;24.20;57.50;;;;;;5074187;28;20454;-85
2021/05/22 04:46:11;;;;;;;1.00;0.70;;;24.00;57.40;;;;;;5073980;28;20467;-86
2021/05/22 04:48:38;;;;;;;1.20;0.70;;;24.00;57.30;;;;;;5074068;28;20457;-86
2021/05/22 04:51:06;;;;;;;1.00;0.70;;;24.20;57.50;;;;;;5074011;28;20451;-86
2021/05/22 04:53:33;;;;;;;1.30;0.80;;;24.00;57.30;;;;;;5073838;28;20534;-87
2021/05/22 04:55:59;;;;;;;1.10;0.80;;;24.00;57.40;;;;;;5073827;28;20872;-86
2021/05/22 04:58:26;;;;;;;1.20;0.83;;;24.00;57.40;;;;;;5073832;28;20480;-86
2021/05/22 05:00:52;;;;;;;1.83;0.80;;;24.00;57.40;;;;;;5073770;28;20437;-87
2021/05/22 05:03:18;;;;;;;1.00;0.70;;;24.00;57.40;;;;;;5074027;28;20454;-86
2021/05/22 05:05:45;;;;;;;1.00;0.70;;;24.00;57.40;;;;;;5073852;28;20433;-87
2021/05/22 05:08:18;;;;;;;1.00;0.70;;;24.00;57.40;;;;;;5073921;28;20441;-86
2021/05/22 05:10:44;;;;;;;1.23;0.90;;;24.00;57.40;;;;;;5074061;28;20435;-87
2021/05/22 05:13:12;;;;;;;1.10;0.70;;;24.00;57.40;;;;;;5073745;28;20516;-86
2021/05/22 05:15:38;;;;;;;1.00;0.70;;;24.00;57.40;;;;;;5073590;28;20473;-87
2021/05/22 05:18:04;;;;;;;0.97;0.60;;;24.00;57.40;;;;;;5073549;28;20457;-86
2021/05/22 05:20:31;;;;;;;1.00;0.70;;;24.00;57.40;;;;;;5073632;28;20618;-86
2021/05/22 05:22:57;;;;;;;1.17;0.80;;;24.10;57.50;;;;;;5073404;28;20455;-86
2021/05/22 05:25:24;;;;;;;2.13;0.80;;;24.00;57.50;;;;;;5073550;28;20457;-86
2021/05/22 05:27:51;;;;;;;1.30;0.80;;;24.00;57.50;;;;;;5073510;28;20437;-86
2021/05/22 05:30:18;;;;;;;1.30;0.87;;;24.00;57.50;;;;;;5073244;28;20458;-86
2021/05/22 05:32:44;;;;;;;1.00;0.80;;;24.00;57.50;;;;;;5073457;28;20468;-86
2021/05/22 05:35:11;;;;;;;1.30;0.70;;;24.00;57.50;;;;;;5073503;28;20443;-85
2021/05/22 05:37:38;;;;;;;1.40;0.80;;;24.00;57.50;;;;;;5073133;28;20539;-86
2021/05/22 05:40:06;;;;;;;1.00;0.80;;;24.00;57.50;;;;;;5072482;28;20557;-86
2021/05/22 05:42:33;;;;;;;1.13;0.80;;;23.90;57.40;;;;;;5073140;28;20461;-86
2021/05/22 05:45:00;;;;;;;1.37;0.90;;;24.10;57.60;;;;;;5073080;28;20445;-86
2021/05/22 05:47:26;;;;;;;1.00;0.80;;;24.00;57.50;;;;;;5073342;28;20502;-86
2021/05/22 05:49:53;;;;;;;0.90;0.60;;;24.00;57.50;;;;;;5073054;28;20434;-86
2021/05/22 05:52:19;;;;;;;1.00;0.73;;;24.00;57.50;;;;;;5073041;28;20437;-86
2021/05/22 05:54:45;;;;;;;1.20;0.80;;;24.00;57.60;;;;;;5073432;28;20827;-86
2021/05/22 05:57:12;;;;;;;1.50;0.80;;;24.00;57.60;;;;;;5072957;28;21004;-85
2021/05/22 05:59:39;;;;;;;1.60;0.70;;;23.90;57.50;;;;;;5072994;28;20464;-86
2021/05/22 06:02:05;;;;;;;0.97;0.70;;;24.00;57.60;;;;;;5073167;28;20441;-85
2021/05/22 06:04:31;;;;;;;1.83;1.00;;;23.90;57.50;;;;;;5072755;28;20425;-86
2021/05/22 06:06:58;;;;;;;1.10;0.90;;;24.00;57.60;;;;;;5072820;28;20437;-87
2021/05/22 06:09:24;;;;;;;2.13;0.93;;;23.90;57.50;;;;;;5073586;28;20441;-85
2021/05/22 06:11:50;;;;;;;1.60;0.90;;;24.00;57.30;;;;;;5073798;28;20486;-84
2021/05/22 06:14:21;;;;;;;4.70;0.77;;;23.90;57.10;;;;;;5073308;28;20443;-85
2021/05/22 06:16:48;;;;;;;2.80;0.90;;;23.90;57.10;;;;;;5072866;28;20488;-81
2021/05/22 06:19:14;;;;;;;1.20;0.90;;;23.90;56.60;;;;;;5073245;28;20444;-83
2021/05/22 06:21:40;;;;;;;4.07;1.60;;;23.90;56.70;;;;;;5073196;28;20839;-83
2021/05/22 06:24:07;;;;;;;3.73;0.90;;;23.90;55.90;;;;;;5073481;28;20452;-83
2021/05/22 06:26:34;;;;;;;3.77;0.93;;;23.80;55.90;;;;;;5073126;28;20448;-83
2021/05/22 06:29:00;;;;;;;3.40;1.20;;;23.80;56.20;;;;;;5072920;28;20458;-82
2021/05/22 06:31:26;;;;;;;1.40;0.80;;;23.70;56.50;;;;;;5073193;28;20441;-84
2021/05/22 06:33:53;;;;;;;1.83;0.90;;;23.80;56.70;;;;;;5072914;28;20438;-87
2021/05/22 06:36:20;;;;;;;3.00;0.90;;;23.80;56.80;;;;;;5072768;28;20495;-86
2021/05/22 06:38:46;;;;;;;1.97;1.10;;;23.80;57.00;;;;;;5072509;28;20497;-87
2021/05/22 06:41:12;;;;;;;1.80;1.00;;;23.80;57.40;;;;;;5072590;28;20455;-86
2021/05/22 06:43:39;;;;;;;1.60;1.30;;;23.80;57.60;;;;;;5072829;28;20452;-86
2021/05/22 06:46:46;;;;;;;3.03;1.33;;;23.80;57.80;;;;;;5072868;28;20465;-87
2021/05/22 06:48:54;;;;;;;1.73;1.20;;;23.80;58.00;;;;;;5072748;28;20441;-88
2021/05/22 06:51:20;;;;;;;1.50;1.17;;;23.80;58.20;;;;;;5074378;28;20442;-88
2021/05/22 06:53:46;;;;;;;2.90;1.30;;;23.80;58.30;;;;;;5076545;28;20495;-91
2021/05/22 06:56:13;;;;;;;3.17;1.13;;;23.90;58.50;;;;;;5076156;28;20867;-87
2021/05/22 06:58:39;;;;;;;3.03;1.10;;;23.80;58.50;;;;;;5077064;28;20457;-87
2021/05/22 07:01:05;;;;;;;1.70;1.07;;;23.80;58.50;;;;;;5081395;28;20442;-87
2021/05/22 07:03:32;;;;;;;1.40;1.20;;;23.90;58.70;;;;;;5090748;28;20438;-87
2021/05/22 07:06:01;;;;;;;2.20;1.37;;;23.90;58.70;;;;;;5090168;28;20440;-84
2021/05/22 07:08:27;;;;;;;3.77;1.60;;;23.90;58.70;;;;;;5080468;28;20520;-87
2021/05/22 07:10:55;;;;;;;1.60;1.20;;;23.90;58.80;;;;;;5078568;28;20471;-87
2021/05/22 07:13:21;;;;;;;2.53;1.90;;;23.90;58.70;;;;;;5077924;28;20468;-87
2021/05/22 07:15:48;;;;;;;7.53;1.27;;;23.90;58.80;;;;;;5077277;28;20439;-87
2021/05/22 07:18:14;;;;;;;1.97;1.40;;;23.90;58.90;;;;;;5076078;28;20453;-88
2021/05/22 07:20:41;;;;;;;3.20;1.10;;;24.10;58.90;;;;;;5076566;28;20461;-88
2021/05/22 07:23:08;;;;;;;2.17;1.20;;;23.90;58.70;;;;;;5076069;28;20442;-88
2021/05/22 07:25:35;;;;;;;3.37;1.27;;;23.90;58.60;;;;;;5075457;28;20491;-87
2021/05/22 07:28:02;;;;;;;3.30;1.40;;;23.90;58.60;;;;;;5076248;28;20461;-88
2021/05/22 07:30:28;;;;;;;3.70;1.30;;;23.90;58.70;;;;;;5076236;28;20442;-88
2021/05/22 07:32:54;;;;;;;3.10;1.20;;;24.00;58.90;;;;;;5075886;28;20488;-88
2021/05/22 07:35:24;;;;;;;1.30;1.17;;;23.90;58.80;;;;;;5075919;28;20433;-87
2021/05/22 07:37:50;;;;;;;3.23;1.90;;;23.90;58.90;;;;;;5075435;28;20494;-85
2021/05/22 07:40:17;;;;;;;2.93;1.80;;;23.90;59.10;;;;;;5075462;28;20519;-88
2021/05/22 07:42:48;;;;;;;7.63;1.53;;;23.90;59.30;;;;;;5075438;28;20491;-84
2021/05/22 07:45:15;;;;;;;1.63;1.03;;;23.90;59.50;;;;;;5075621;28;20488;-88
2021/05/22 07:47:42;;;;;;;2.70;1.17;;;23.90;59.50;;;;;;5075608;28;20536;-86
2021/05/22 07:50:09;;;;;;;1.60;1.27;;;23.90;59.50;;;;;;5076142;28;20802;-89
2021/05/22 07:52:36;;;;;;;4.23;1.50;;;23.90;59.60;;;;;;5075355;28;20444;-87
2021/05/22 07:55:02;;;;;;;3.33;1.27;;;24.00;59.60;;;;;;5075474;28;20900;-88
2021/05/22 07:57:29;;;;;;;2.90;1.60;;;23.90;59.50;;;;;;5075811;28;20528;-86
2021/05/22 07:59:56;;;;;;;2.30;1.13;;;24.00;59.40;;;;;;5077163;28;20475;-88
2021/05/22 08:02:22;;;;;;;1.50;1.10;;;24.00;58.90;;;;;;5074942;28;20446;-89
2021/05/22 08:04:48;;;;;;;2.50;1.40;;;24.00;59.00;;;;;;5075314;28;20444;-89
2021/05/22 08:07:14;;;;;;;4.23;1.13;;;24.10;59.10;;;;;;5075057;28;20927;-91
2021/05/22 08:09:43;;;;;;;2.67;1.20;;;23.90;59.10;;;;;;5079897;28;20797;-87
2021/05/22 08:12:09;;;;;;;3.10;1.10;;;24.10;59.20;;;;;;5076021;28;20499;-84
2021/05/22 08:14:36;;;;;;;4.13;1.50;;;24.00;58.70;;;;;;5074886;28;20468;-84
2021/05/22 08:17:03;;;;;;;3.70;2.07;;;24.00;58.70;;;;;;5074874;28;20495;-87
2021/05/22 08:19:29;;;;;;;4.30;1.57;;;24.00;58.80;;;;;;5074562;28;20444;-87
2021/05/22 08:21:55;;;;;;;4.30;1.60;;;24.00;59.00;;;;;;5074934;28;20454;-89
2021/05/22 08:24:22;;;;;;;3.07;1.63;;;24.00;59.10;;;;;;5074833;28;20441;-90
2021/05/22 08:26:48;;;;;;;6.83;2.20;;;24.00;59.10;;;;;;5074652;28;20445;-89
2021/05/22 08:29:14;;;;;;;3.60;1.80;;;24.00;59.20;;;;;;5074514;28;20458;-88
2021/05/22 08:31:42;;;;;;;2.33;1.10;;;24.10;59.50;;;;;;5074650;28;20453;-82
2021/05/22 08:34:08;;;;;;;7.73;1.33;;;24.10;59.70;;;;;;5074331;28;20436;-84
2021/05/22 08:36:34;;;;;;;4.20;1.37;;;24.20;58.50;;;;;;5073974;28;20478;-84
2021/05/22 08:39:01;;;;;;;9.17;1.60;;;24.10;58.30;;;;;;5074225;28;20496;-84
2021/05/22 08:41:28;;;;;;;6.07;1.90;;;24.20;58.50;;;;;;5074168;28;20449;-89
2021/05/22 08:43:55;;;;;;;4.60;1.80;;;24.20;58.70;;;;;;5074235;28;20442;-84
2021/05/22 08:46:21;;;;;;;1.43;1.00;;;24.10;58.70;;;;;;5074588;28;20481;-84
2021/05/22 08:48:49;;;;;;;7.60;1.73;;;24.10;58.90;;;;;;5074336;28;20442;-84
2021/05/22 08:51:18;;;;;;;8.90;1.63;;;24.10;59.00;;;;;;5074150;28;20437;-83
2021/05/22 08:53:45;;;;;;;7.50;1.53;;;24.10;59.00;;;;;;5073971;28;20445;-83
2021/05/22 08:56:11;;;;;;;2.60;1.30;;;24.10;59.00;;;;;;5073355;28;20446;-91
2021/05/22 08:58:38;;;;;;;9.43;1.50;;;24.20;59.10;;;;;;5074254;28;20469;-89
2021/05/22 09:01:05;;;;;;;4.43;1.50;;;24.20;59.00;;;;;;5075063;28;20453;-88
2021/05/22 09:03:33;;;;;;;3.73;1.33;;;24.20;59.10;;;;;;5078456;28;20446;-89
2021/05/22 09:06:00;;;;;;;6.07;1.63;;;24.20;59.10;;;;;;5076178;28;20475;-90
2021/05/22 09:08:26;;;;;;;3.27;1.30;;;24.20;59.20;;;;;;5074493;28;20822;-90
2021/05/22 09:10:54;;;;;;;4.33;1.57;;;24.20;59.20;;;;;;5075313;28;20525;-90
2021/05/22 09:13:22;;;;;;;5.20;1.67;;;24.30;59.40;;;;;;5074123;28;20546;-90
2021/05/22 09:15:54;;;;;;;2.00;1.50;;;24.30;59.30;;;;;;5074326;28;20800;-90
2021/05/22 09:18:23;;;;;;;3.17;1.50;;;24.30;59.40;;;;;;5074383;28;20938;-90
2021/05/22 09:20:52;;;;;;;1.83;1.00;;;24.30;59.30;;;;;;5074492;28;20445;-89
2021/05/22 09:23:21;;;;;;;2.13;1.20;;;24.40;59.40;;;;;;5074595;28;20452;-90
2021/05/22 09:25:49;;;;;;;2.70;1.13;;;24.40;59.40;;;;;;5074415;28;20473;-90
2021/05/22 09:28:19;;;;;;;5.23;1.97;;;24.50;59.50;;;;;;5074113;28;20565;-90
2021/05/22 09:30:48;;;;;;;2.63;1.50;;;24.40;59.30;;;;;;5074045;28;20532;-90
2021/05/22 09:33:17;;;;;;;2.17;1.27;;;24.40;59.40;;;;;;5074082;28;20451;-90
2021/05/22 09:35:51;;;;;;;2.00;1.13;;;24.50;59.40;;;;;;5073914;28;20601;-90
2021/05/22 09:38:17;;;;;;;5.23;1.03;;;24.50;59.40;;;;;;5074239;28;20576;-90
2021/05/22 09:40:45;;;;;;;5.67;1.37;;;24.50;59.40;;;;;;5073854;28;20534;-90
2021/05/22 09:43:14;;;;;;;4.03;1.30;;;24.50;59.30;;;;;;5074014;28;20465;-90
2021/05/22 09:45:42;;;;;;;3.30;1.57;;;24.50;59.40;;;;;;5074310;28;20456;-91
2021/05/22 09:48:12;;;;;;;2.73;1.57;;;24.50;59.40;;;;;;5073928;28;20431;-91
2021/05/22 09:50:41;;;;;;;2.87;1.13;;;24.50;59.40;;;;;;5074343;28;20509;-91
2021/05/22 09:53:28;;;;;;;1.47;0.97;;;24.50;59.40;;;;;;5073434;28;20536;-90
2021/05/22 09:56:13;;;;;;;3.43;1.10;;;24.60;59.40;;;;;;5073810;28;20526;-90
2021/05/22 09:58:41;;;;;;;1.87;1.13;;;24.60;59.50;;;;;;5074152;28;20489;-90
2021/05/22 10:01:08;;;;;;;2.20;1.33;;;24.60;59.50;;;;;;5074498;28;20443;-91
2021/05/22 10:03:34;;;;;;;1.93;0.93;;;24.60;59.50;;;;;;5073944;28;20485;-89
2021/05/22 10:06:01;;;;;;;1.30;0.83;;;24.60;59.50;;;;;;5073576;28;20443;-90
2021/05/22 10:08:27;;;;;;;2.43;1.10;;;24.70;59.50;;;;;;5073457;28;20442;-90
2021/05/22 10:10:56;;;;;;;1.70;0.90;;;24.70;59.60;;;;;;5073269;28;20450;-89
2021/05/22 10:13:26;;;;;;;2.27;1.47;;;24.70;59.60;;;;;;5073286;28;20481;-89
2021/05/22 10:15:54;;;;;;;4.17;1.20;;;24.70;59.50;;;;;;5073198;28;20450;-89
2021/05/22 10:18:22;;;;;;;1.50;1.03;;;24.70;59.50;;;;;;5073109;28;20577;-89
2021/05/22 10:20:49;;;;;;;1.47;0.90;;;24.70;59.40;;;;;;5073611;28;20444;-89
2021/05/22 10:23:17;;;;;;;2.10;1.10;;;24.70;59.40;;;;;;5073299;28;21004;-89
2021/05/22 10:25:46;;;;;;;2.60;0.97;;;24.80;59.50;;;;;;5074952;28;20493;-88
2021/05/22 10:28:13;;;;;;;4.40;1.00;;;24.80;59.50;;;;;;5076744;28;20657;-83
2021/05/22 10:30:41;;;;;;;1.80;1.10;;;24.80;58.40;;;;;;5076483;28;20456;-86
2021/05/22 10:33:09;;;;;;;2.17;0.93;;;24.80;58.40;;;;;;5077081;28;20448;-86
2021/05/22 10:35:44;;;;;;;2.63;1.30;;;24.80;59.00;;;;;;5077119;28;20449;-87
2021/05/22 10:38:31;;;;;;;2.53;1.00;;;24.80;59.20;;;;;;5077383;28;20542;-87
2021/05/22 10:40:57;;;;;;;1.93;1.10;;;24.80;59.20;;;;;;5076984;28;20446;-88
2021/05/22 10:43:42;;;;;;;2.77;1.17;;;24.80;59.20;;;;;;5078539;28;20462;-87
2021/05/22 10:46:10;;;;;;;4.10;0.97;;;24.80;59.20;;;;;;5077541;28;20513;-87
2021/05/22 10:48:59;;;;;;;3.13;1.10;;;24.90;59.30;;;;;;5076489;28;20537;-88
2021/05/22 10:51:32;;;;;;;5.70;1.10;;;24.90;59.20;;;;;;5076040;28;20449;-86
2021/05/22 10:54:00;;;;;;;1.97;1.23;;;24.90;58.80;;;;;;5075903;28;20454;-81
2021/05/22 10:56:27;;;;;;;1.70;0.90;;;24.90;58.40;;;;;;5075191;28;20471;-83
2021/05/22 10:59:13;;;;;;;1.50;0.90;;;24.90;58.40;;;;;;5076167;28;20455;-88
2021/05/22 11:01:43;;;;;;;1.63;1.20;;;24.90;58.50;;;;;;5067620;28;20434;-83
2021/05/22 11:04:34;;;;;;;1.50;1.27;;;24.90;58.70;;;;;;5045684;28;20437;-84
2021/05/22 11:07:16;;;;;;;1.80;1.13;;;24.90;58.70;;;;;;5055746;28;20475;-84
2021/05/22 11:09:54;;;;;;;1.77;1.00;;;24.80;58.70;;;;;;5071907;28;20435;-84
2021/05/22 11:12:50;;;;;;;1.90;1.30;;;24.80;58.70;;;;;;5075995;28;20505;-84
2021/05/22 11:15:54;;;;;;;2.00;1.10;;;24.90;58.70;;;;;;5071489;28;20470;-83
2021/05/22 11:18:23;;;;;;;1.63;1.10;;;24.90;58.80;;;;;;5075047;28;21035;-82
2021/05/22 11:21:17;;;;;;;2.30;1.03;;;24.90;58.90;;;;;;5075426;28;20432;-83
2021/05/22 11:24:03;;;;;;;6.87;1.00;;;24.90;58.80;;;;;;5075387;28;20436;-84
2021/05/22 11:26:57;;;;;;;7.50;1.20;;;24.90;58.90;;;;;;5075957;28;20468;-83
2021/05/22 11:29:40;;;;;;;1.50;1.00;;;25.00;58.90;;;;;;5057580;28;20479;-83
2021/05/22 11:32:45;;;;;;;2.17;1.00;;;24.90;58.80;;;;;;5057072;28;20450;-87
2021/05/22 11:35:36;;;;;;;2.80;1.33;;;25.00;58.70;;;;;;5059687;28;20519;-87
2021/05/22 16:31:37;;;;;;;1.87;1.33;;;25.70;59.40;;;;;;5018448;28;20757;-95
2021/05/22 16:34:30;;;;;;;2.30;1.00;;;25.60;59.40;;;;;;5066161;22;20487;-94
2021/05/22 16:36:57;;;;;;;2.50;1.10;;;25.70;59.50;;;;;;5061898;28;20843;-92
2021/05/22 16:39:27;;;;;;;2.63;1.00;;;25.70;59.50;;;;;;5072419;28;20443;-90
2021/05/22 16:41:53;;;;;;;3.20;1.00;;;25.60;59.40;;;;;;5062174;28;20469;-91
2021/05/22 16:44:20;;;;;;;1.87;1.30;;;25.80;59.50;;;;;;5054051;28;20447;-90
2021/05/22 16:46:46;;;;;;;1.93;1.30;;;25.80;59.50;;;;;;5037550;28;20932;-89
2021/05/22 16:49:13;;;;;;;2.73;1.03;;;25.80;59.50;;;;;;5055433;28;20445;-91
2021/05/22 16:51:40;;;;;;;1.87;1.67;;;25.80;59.70;;;;;;5054544;28;20460;-91
2021/05/22 16:54:07;;;;;;;4.07;1.33;;;25.90;59.50;;;;;;5034883;28;20810;-90
2021/05/22 16:56:34;;;;;;;1.43;1.00;;;25.80;59.40;;;;;;5034649;28;20535;-91
2021/05/22 16:59:01;;;;;;;1.30;1.03;;;25.80;59.40;;;;;;5035006;28;20450;-91
2021/05/22 17:01:27;;;;;;;1.40;1.20;;;26.00;59.50;;;;;;5043457;28;20457;-90
2021/05/22 17:03:54;;;;;;;1.30;1.03;;;25.80;59.40;;;;;;5070830;28;20564;-91
2021/05/22 17:06:20;;;;;;;1.40;1.10;;;25.90;59.50;;;;;;5064864;28;20460;-93
2021/05/22 17:08:48;;;;;;;1.20;1.00;;;25.90;59.40;;;;;;5077322;28;20500;-90
2021/05/22 17:11:22;;;;;;;2.80;1.13;;;26.00;59.50;;;;;;5058931;28;20449;-94
2021/05/22 17:13:48;;;;;;;4.10;1.00;;;25.90;59.50;;;;;;5056357;28;20437;-93
2021/05/22 17:16:15;;;;;;;2.07;0.90;;;25.90;59.40;;;;;;5055843;28;20457;-93
2021/05/22 17:18:43;;;;;;;1.17;0.87;;;25.90;59.50;;;;;;5055059;28;20528;-93
2021/05/22 17:21:14;;;;;;;1.50;0.93;;;25.90;59.40;;;;;;5055615;28;20882;-94
2021/05/22 17:23:40;;;;;;;2.00;1.20;;;25.90;59.40;;;;;;5053897;28;20453;-87
2021/05/22 17:26:07;;;;;;;2.17;0.93;;;25.90;59.50;;;;;;5053194;28;21039;-86
2021/05/22 17:28:34;;;;;;;1.70;0.93;;;25.90;59.30;;;;;;5053364;28;20457;-86
2021/05/22 17:31:00;;;;;;;1.00;0.87;;;26.00;59.10;;;;;;5053569;28;20535;-90
2021/05/22 17:33:27;;;;;;;2.20;1.17;;;26.00;59.10;;;;;;5053560;28;20580;-92
2021/05/22 17:35:54;;;;;;;2.70;1.00;;;26.00;59.20;;;;;;5053682;28;20460;-92
2021/05/22 17:38:20;;;;;;;1.00;0.73;;;26.00;59.20;;;;;;5053398;28;20489;-91
2021/05/22 17:40:47;;;;;;;1.43;0.80;;;26.00;59.10;;;;;;5053413;28;20532;-91
2021/05/22 17:43:14;;;;;;;2.50;1.10;;;25.90;59.20;;;;;;5053290;28;21035;-91
2021/05/22 17:45:41;;;;;;;1.53;1.07;;;25.90;59.20;;;;;;5053289;28;20446;-91
2021/05/22 17:48:08;;;;;;;1.60;1.00;;;26.00;59.20;;;;;;5053670;28;20843;-90